New Boston, MO (63557)

4:33 AM CDT on July 25, 2016 (GMT -0500)
Mystic Plains COA | | Change Station

Elev 984 ft 40.12 °N, 92.79 °W | Updated 29 seconds ago

Overcast
Overcast
71.8 °F
Feels Like 71 °F
N
3.0
Wind Variable Wind from ENE
Gusts 8.0 mph

Today
High -- | Low -- °F
--% Chance of Precip.
Yesterday
High -- | Low -- °F
Precip. -- in
Pressure 30.02 in
Visibility 10.0 miles
Clouds Overcast 10000 ft
Heat Index 71 °F
Dew Point 67 °F
Humidity 84%
Rainfall 0.00 in
Snow Depth Not available.
6:04 AM 8:31 PM
Waning Gibbous, 67% visible
METAR KIRK 250855Z AUTO 03008KT 10SM OVC100 23/19 A3004 RMK AO2 SLP164 T02330189 53001 PNO $
Pressure 30.02 in
Visibility 10.0 miles
Clouds Overcast 10000 ft
Heat Index 71 °F
Dew Point 67 °F
Humidity 84%
Rainfall 0.00 in
Snow Depth Not available.
6:04 AM 8:31 PM
Waning Gibbous, 67% visible
METAR KIRK 250855Z AUTO 03008KT 10SM OVC100 23/19 A3004 RMK AO2 SLP164 T02330189 53001 PNO $

10-Day Weather Forecast

Almanac

Astronomy

Jul. 25, 2016 Rise Set
Actual Time
Civil Twilight
Nautical Twilight
Astronomical Twilight
Moon
Length of Visible Light
Length of Day
Tomorrow will be .
, % of the Moon is Illuminated

Today's Extremes

State Highs State Lows

Community

WunderPhotos

Upload Photos

1,927,289 photos uploaded!

WunderBlog® & News

Nearby

Air Quality

  Air Quality AQ Index Pollutant
Not available.

Snow Depth

Station Depth Elevation

Earthquake Activity

City Distance Mag. Time & Date
Minimum magnitude displayed is 2.5.

Coastal Water Temperatures

Place Temperature

Stations

Nearby Weather Stations

Station Location Temp. Windchill Dew Point Humidity Wind Precip. Elev Updated Type
                   

Watches & Warnings

There are currently no watches in effect.